Fecha, hora, temperatura, viento dirección y velocidad, humedad y presión.

  • 13-12-2019 11:00:00 | 6.80°C | Noroeste |19.00 km/h | 75.00% | 0.00 hPa
  • 13-12-2019 10:00:00 | 7.30°C | Noroeste |19.00 km/h | 72.00% | 0.00 hPa
  • 13-12-2019 09:00:00 | 6.70°C | Norte |16.00 km/h | 76.00% | 0.00 hPa
  • 13-12-2019 08:00:00 | 6.90°C | Norte |13.00 km/h | 75.00% | 0.00 hPa
  • 13-12-2019 07:00:00 | 6.90°C | Noroeste |12.00 km/h | 71.00% | 0.00 hPa
  • 13-12-2019 06:00:00 | 7.30°C | Noroeste |10.00 km/h | 66.00% | 0.00 hPa
  • 13-12-2019 05:00:00 | 8.00°C | Noroeste |17.00 km/h | 57.00% | 0.00 hPa
  • 13-12-2019 04:00:00 | 7.60°C | Norte |12.00 km/h | 61.00% | 0.00 hPa
  • 13-12-2019 03:00:00 | 6.80°C | Norte |8.00 km/h | 82.00% | 0.00 hPa
  • 13-12-2019 02:00:00 | 6.80°C | Norte |9.00 km/h | 81.00% | 0.00 hPa
  • 13-12-2019 01:00:00 | 6.40°C | Noroeste |6.00 km/h | 83.00% | 0.00 hPa
  • 13-12-2019 00:00:00 | 6.80°C | Norte |11.00 km/h | 85.00% | 0.00 hPa
  • 12-12-2019 23:00:00 | 7.20°C | Noroeste |5.00 km/h | 82.00% | 0.00 hPa
  • 12-12-2019 22:00:00 | 6.20°C | Norte |5.00 km/h | 90.00% | 0.00 hPa
  • 12-12-2019 21:00:00 | 5.60°C | Norte |5.00 km/h | 91.00% | 0.00 hPa
  • 12-12-2019 20:00:00 | 5.40°C | Noroeste |10.00 km/h | 90.00% | 0.00 hPa
  • 12-12-2019 19:00:00 | 5.00°C | Norte |10.00 km/h | 90.00% | 0.00 hPa
  • 12-12-2019 18:00:00 | 4.80°C | Norte |5.00 km/h | 86.00% | 0.00 hPa
  • 12-12-2019 17:00:00 | 4.50°C | Norte |4.00 km/h | 80.00% | 0.00 hPa
  • 12-12-2019 16:00:00 | 4.60°C | Nordeste |2.00 km/h | 74.00% | 0.00 hPa
  • 12-12-2019 15:00:00 | 4.30°C | Sudeste |3.00 km/h | 74.00% | 0.00 hPa
  • 12-12-2019 14:00:00 | 3.50°C | Sudoeste |5.00 km/h | 74.00% | 0.00 hPa
  • 12-12-2019 13:00:00 | 2.80°C | Sudoeste |4.00 km/h | 74.00% | 0.00 hPa
  • 12-12-2019 12:00:00 | 2.50°C | Sudoeste |5.00 km/h | 73.00% | 0.00 hPa
    • diseño web asturias Información sobre el estado de las mareas, altura de la marejada, temperatura del agua y otros datos de Gijón en Asturias.

      Surf Gijón